sensor_id;sensor_type;location;lat;lon;timestamp;pressure;altitude;pressure_sealevel;temperature;humidity
59103;BME280;43999;51.660;5.616;2023-04-28T00:00:52;101137.88;;;8.47;91.52
59103;BME280;43999;51.660;5.616;2023-04-28T00:03:20;101127.66;;;8.41;92.74
59103;BME280;43999;51.660;5.616;2023-04-28T00:05:47;101123.63;;;8.34;93.65
59103;BME280;43999;51.660;5.616;2023-04-28T00:08:15;101124.50;;;8.33;94.11
59103;BME280;43999;51.660;5.616;2023-04-28T00:10:42;101125.53;;;8.29;95.41
59103;BME280;43999;51.660;5.616;2023-04-28T00:13:10;101123.97;;;8.24;96.50
59103;BME280;43999;51.660;5.616;2023-04-28T00:15:38;101121.44;;;8.23;96.44
59103;BME280;43999;51.660;5.616;2023-04-28T00:18:05;101128.31;;;8.24;97.25
59103;BME280;43999;51.660;5.616;2023-04-28T00:20:33;101123.22;;;8.21;97.30
59103;BME280;43999;51.660;5.616;2023-04-28T00:23:00;101127.63;;;8.20;99.10
59103;BME280;43999;51.660;5.616;2023-04-28T00:25:29;101122.56;;;8.16;98.73
59103;BME280;43999;51.660;5.616;2023-04-28T00:27:57;101116.75;;;8.09;100.00
59103;BME280;43999;51.660;5.616;2023-04-28T00:30:24;101104.91;;;8.00;100.00
59103;BME280;43999;51.660;5.616;2023-04-28T00:32:54;101113.63;;;7.99;100.00
59103;BME280;43999;51.660;5.616;2023-04-28T00:35:22;101109.41;;;7.97;100.00
59103;BME280;43999;51.660;5.616;2023-04-28T00:37:49;101098.16;;;7.95;100.00
59103;BME280;43999;51.660;5.616;2023-04-28T00:40:17;101095.53;;;7.95;100.00
59103;BME280;43999;51.660;5.616;2023-04-28T00:42:44;101092.16;;;7.93;100.00
59103;BME280;43999;51.660;5.616;2023-04-28T00:45:12;101089.59;;;7.91;100.00
59103;BME280;43999;51.660;5.616;2023-04-28T00:47:41;101094.16;;;7.86;100.00
59103;BME280;43999;51.660;5.616;2023-04-28T00:50:09;101087.41;;;7.80;100.00
59103;BME280;43999;51.660;5.616;2023-04-28T00:52:37;101092.78;;;7.76;100.00
59103;BME280;43999;51.660;5.616;2023-04-28T00:55:08;101081.75;;;7.69;100.00
59103;BME280;43999;51.660;5.616;2023-04-28T00:57:37;101079.25;;;7.66;100.00
59103;BME280;43999;51.660;5.616;2023-04-28T01:00:05;101079.31;;;7.64;100.00
59103;BME280;43999;51.660;5.616;2023-04-28T01:02:35;101069.13;;;7.58;100.00
59103;BME280;43999;51.660;5.616;2023-04-28T01:05:04;101070.06;;;7.56;100.00
59103;BME280;43999;51.660;5.616;2023-04-28T01:07:32;101058.91;;;7.52;100.00
59103;BME280;43999;51.660;5.616;2023-04-28T01:10:08;101053.94;;;7.46;100.00
59103;BME280;43999;51.660;5.616;2023-04-28T01:12:36;101056.53;;;7.46;100.00
59103;BME280;43999;51.660;5.616;2023-04-28T01:15:04;101064.41;;;7.44;100.00
59103;BME280;43999;51.660;5.616;2023-04-28T01:17:34;101055.81;;;7.42;100.00
59103;BME280;43999;51.660;5.616;2023-04-28T01:20:03;101052.22;;;7.45;100.00
59103;BME280;43999;51.660;5.616;2023-04-28T01:22:31;101050.53;;;7.44;100.00
59103;BME280;43999;51.660;5.616;2023-04-28T01:24:59;101046.16;;;7.44;100.00
59103;BME280;43999;51.660;5.616;2023-04-28T01:27:27;101031.34;;;7.45;100.00
59103;BME280;43999;51.660;5.616;2023-04-28T01:29:59;101034.72;;;7.48;100.00
59103;BME280;43999;51.660;5.616;2023-04-28T01:32:26;101036.34;;;7.51;100.00
59103;BME280;43999;51.660;5.616;2023-04-28T01:34:55;101022.41;;;7.52;100.00
59103;BME280;43999;51.660;5.616;2023-04-28T01:37:22;101026.56;;;7.58;100.00
59103;BME280;43999;51.660;5.616;2023-04-28T01:39:50;101030.78;;;7.60;100.00
59103;BME280;43999;51.660;5.616;2023-04-28T01:42:18;101027.16;;;7.64;100.00
59103;BME280;43999;51.660;5.616;2023-04-28T01:44:45;101029.75;;;7.64;100.00
59103;BME280;43999;51.660;5.616;2023-04-28T01:47:12;101026.25;;;7.65;100.00
59103;BME280;43999;51.660;5.616;2023-04-28T01:49:39;101008.84;;;7.66;100.00
59103;BME280;43999;51.660;5.616;2023-04-28T01:52:07;101010.50;;;7.68;100.00
59103;BME280;43999;51.660;5.616;2023-04-28T01:54:34;101009.56;;;7.69;100.00
59103;BME280;43999;51.660;5.616;2023-04-28T01:57:03;101006.06;;;7.70;100.00
59103;BME280;43999;51.660;5.616;2023-04-28T01:59:31;101001.78;;;7.68;100.00
59103;BME280;43999;51.660;5.616;2023-04-28T02:01:59;100995.56;;;7.72;100.00
59103;BME280;43999;51.660;5.616;2023-04-28T02:04:26;100988.56;;;7.72;100.00
59103;BME280;43999;51.660;5.616;2023-04-28T02:06:54;100988.31;;;7.79;100.00
59103;BME280;43999;51.660;5.616;2023-04-28T02:09:21;100981.31;;;7.81;100.00
59103;BME280;43999;51.660;5.616;2023-04-28T02:11:49;100970.00;;;7.80;100.00
59103;BME280;43999;51.660;5.616;2023-04-28T02:14:17;100981.25;;;7.82;100.00
59103;BME280;43999;51.660;5.616;2023-04-28T02:16:45;100993.31;;;7.85;100.00
59103;BME280;43999;51.660;5.616;2023-04-28T02:19:13;100996.72;;;7.87;100.00
59103;BME280;43999;51.660;5.616;2023-04-28T02:21:42;101003.63;;;7.88;100.00
59103;BME280;43999;51.660;5.616;2023-04-28T02:24:09;100987.06;;;7.89;100.00
59103;BME280;43999;51.660;5.616;2023-04-28T02:26:36;100986.16;;;7.90;100.00
59103;BME280;43999;51.660;5.616;2023-04-28T02:29:05;100986.06;;;7.92;100.00
59103;BME280;43999;51.660;5.616;2023-04-28T02:31:33;100979.09;;;7.92;100.00
59103;BME280;43999;51.660;5.616;2023-04-28T02:34:01;100972.91;;;7.95;100.00
59103;BME280;43999;51.660;5.616;2023-04-28T02:36:30;100964.16;;;7.96;100.00
59103;BME280;43999;51.660;5.616;2023-04-28T02:38:59;100950.34;;;7.94;100.00
59103;BME280;43999;51.660;5.616;2023-04-28T02:41:27;100939.78;;;7.97;100.00
59103;BME280;43999;51.660;5.616;2023-04-28T02:43:57;100937.09;;;7.98;100.00
59103;BME280;43999;51.660;5.616;2023-04-28T02:46:24;100923.19;;;7.98;100.00
59103;BME280;43999;51.660;5.616;2023-04-28T02:48:51;100932.72;;;7.99;100.00
59103;BME280;43999;51.660;5.616;2023-04-28T02:51:19;100928.41;;;7.98;100.00
59103;BME280;43999;51.660;5.616;2023-04-28T02:53:47;100928.22;;;8.02;100.00
59103;BME280;43999;51.660;5.616;2023-04-28T02:56:14;100914.47;;;7.99;100.00
59103;BME280;43999;51.660;5.616;2023-04-28T02:58:42;100910.81;;;8.03;100.00
59103;BME280;43999;51.660;5.616;2023-04-28T03:01:09;100897.72;;;8.04;100.00
59103;BME280;43999;51.660;5.616;2023-04-28T03:03:38;100899.56;;;8.01;100.00
59103;BME280;43999;51.660;5.616;2023-04-28T03:06:06;100895.22;;;8.01;100.00
59103;BME280;43999;51.660;5.616;2023-04-28T03:08:33;100887.41;;;8.01;100.00
59103;BME280;43999;51.660;5.616;2023-04-28T03:11:01;100885.44;;;8.06;100.00
59103;BME280;43999;51.660;5.616;2023-04-28T03:13:28;100887.06;;;8.09;100.00
59103;BME280;43999;51.660;5.616;2023-04-28T03:15:56;100901.72;;;8.12;100.00
59103;BME280;43999;51.660;5.616;2023-04-28T03:18:23;100899.00;;;8.15;100.00
59103;BME280;43999;51.660;5.616;2023-04-28T03:20:54;100898.09;;;8.16;100.00
59103;BME280;43999;51.660;5.616;2023-04-28T03:23:22;100904.09;;;8.18;100.00
59103;BME280;43999;51.660;5.616;2023-04-28T03:25:49;100901.41;;;8.19;100.00
59103;BME280;43999;51.660;5.616;2023-04-28T03:28:17;100899.53;;;8.23;100.00
59103;BME280;43999;51.660;5.616;2023-04-28T03:30:44;100900.44;;;8.22;100.00
59103;BME280;43999;51.660;5.616;2023-04-28T03:33:12;100896.84;;;8.24;100.00
59103;BME280;43999;51.660;5.616;2023-04-28T03:35:40;100896.72;;;8.28;100.00
59103;BME280;43999;51.660;5.616;2023-04-28T03:38:07;100888.75;;;8.31;100.00
59103;BME280;43999;51.660;5.616;2023-04-28T03:40:35;100887.81;;;8.32;100.00
59103;BME280;43999;51.660;5.616;2023-04-28T03:43:21;100883.59;;;8.29;100.00
59103;BME280;43999;51.660;5.616;2023-04-28T03:46:07;100886.00;;;8.34;100.00
59103;BME280;43999;51.660;5.616;2023-04-28T03:48:35;100880.72;;;8.35;100.00
59103;BME280;43999;51.660;5.616;2023-04-28T03:51:04;100881.50;;;8.37;100.00
59103;BME280;43999;51.660;5.616;2023-04-28T03:53:33;100878.81;;;8.39;100.00
59103;BME280;43999;51.660;5.616;2023-04-28T03:56:00;100875.38;;;8.38;100.00
59103;BME280;43999;51.660;5.616;2023-04-28T03:58:28;100868.44;;;8.37;100.00
59103;BME280;43999;51.660;5.616;2023-04-28T04:00:55;100868.31;;;8.40;100.00
59103;BME280;43999;51.660;5.616;2023-04-28T04:03:22;100866.66;;;8.38;100.00
59103;BME280;43999;51.660;5.616;2023-04-28T04:05:56;100873.59;;;8.39;100.00
59103;BME280;43999;51.660;5.616;2023-04-28T04:08:25;100868.38;;;8.39;100.00
59103;BME280;43999;51.660;5.616;2023-04-28T04:10:52;100869.91;;;8.45;100.00
59103;BME280;43999;51.660;5.616;2023-04-28T04:13:21;100869.84;;;8.46;100.00
59103;BME280;43999;51.660;5.616;2023-04-28T04:15:49;100868.91;;;8.47;100.00
59103;BME280;43999;51.660;5.616;2023-04-28T04:18:21;100863.69;;;8.47;100.00
59103;BME280;43999;51.660;5.616;2023-04-28T04:21:07;100860.09;;;8.50;100.00
59103;BME280;43999;51.660;5.616;2023-04-28T04:23:34;100864.34;;;8.52;100.00
59103;BME280;43999;51.660;5.616;2023-04-28T04:26:02;100861.72;;;8.52;100.00
59103;BME280;43999;51.660;5.616;2023-04-28T04:28:31;100862.63;;;8.51;100.00
59103;BME280;43999;51.660;5.616;2023-04-28T04:31:03;100857.41;;;8.51;100.00
59103;BME280;43999;51.660;5.616;2023-04-28T04:33:31;100851.28;;;8.52;100.00
59103;BME280;43999;51.660;5.616;2023-04-28T04:36:00;100845.13;;;8.53;100.00
59103;BME280;43999;51.660;5.616;2023-04-28T04:38:28;100854.53;;;8.57;100.00
59103;BME280;43999;51.660;5.616;2023-04-28T04:41:00;100846.56;;;8.60;100.00
59103;BME280;43999;51.660;5.616;2023-04-28T04:43:27;100848.31;;;8.60;100.00
59103;BME280;43999;51.660;5.616;2023-04-28T04:45:55;100848.41;;;8.58;100.00
59103;BME280;43999;51.660;5.616;2023-04-28T04:48:22;100841.47;;;8.57;100.00
59103;BME280;43999;51.660;5.616;2023-04-28T04:51:03;100844.72;;;8.63;100.00
59103;BME280;43999;51.660;5.616;2023-04-28T04:53:31;100842.03;;;8.64;100.00
59103;BME280;43999;51.660;5.616;2023-04-28T04:55:58;100853.34;;;8.65;100.00
59103;BME280;43999;51.660;5.616;2023-04-28T04:58:27;100844.56;;;8.66;100.00
59103;BME280;43999;51.660;5.616;2023-04-28T05:01:30;100841.03;;;8.67;100.00
59103;BME280;43999;51.660;5.616;2023-04-28T05:03:58;100839.19;;;8.69;100.00
59103;BME280;43999;51.660;5.616;2023-04-28T05:06:25;100839.94;;;8.72;100.00
59103;BME280;43999;51.660;5.616;2023-04-28T05:08:53;100839.00;;;8.73;100.00
59103;BME280;43999;51.660;5.616;2023-04-28T05:11:24;100842.47;;;8.74;100.00
59103;BME280;43999;51.660;5.616;2023-04-28T05:13:53;100849.22;;;8.78;100.00
59103;BME280;43999;51.660;5.616;2023-04-28T05:16:20;100844.06;;;8.76;100.00
59103;BME280;43999;51.660;5.616;2023-04-28T05:19:19;100843.03;;;8.81;100.00
59103;BME280;43999;51.660;5.616;2023-04-28T05:21:46;100837.66;;;8.84;100.00
59103;BME280;43999;51.660;5.616;2023-04-28T05:24:14;100825.22;;;8.89;100.00
59103;BME280;43999;51.660;5.616;2023-04-28T05:26:43;100820.72;;;8.92;100.00
59103;BME280;43999;51.660;5.616;2023-04-28T05:29:11;100818.66;;;8.99;100.00
59103;BME280;43999;51.660;5.616;2023-04-28T05:31:38;100807.97;;;9.04;100.00
59103;BME280;43999;51.660;5.616;2023-04-28T05:34:07;100802.59;;;9.07;100.00
59103;BME280;43999;51.660;5.616;2023-04-28T05:36:35;100794.59;;;9.10;100.00
59103;BME280;43999;51.660;5.616;2023-04-28T05:39:05;100808.22;;;9.17;100.00
59103;BME280;43999;51.660;5.616;2023-04-28T05:41:40;100812.53;;;9.18;100.00
59103;BME280;43999;51.660;5.616;2023-04-28T05:44:08;100807.09;;;9.22;100.00
59103;BME280;43999;51.660;5.616;2023-04-28T05:46:36;100818.16;;;9.27;100.00
59103;BME280;43999;51.660;5.616;2023-04-28T05:49:03;100819.84;;;9.28;100.00
59103;BME280;43999;51.660;5.616;2023-04-28T05:51:36;100821.53;;;9.29;100.00
59103;BME280;43999;51.660;5.616;2023-04-28T05:54:04;100810.84;;;9.34;100.00
59103;BME280;43999;51.660;5.616;2023-04-28T05:56:48;100796.63;;;9.40;100.00
59103;BME280;43999;51.660;5.616;2023-04-28T05:59:15;100795.50;;;9.45;100.00
59103;BME280;43999;51.660;5.616;2023-04-28T06:01:43;100816.88;;;9.54;100.00
59103;BME280;43999;51.660;5.616;2023-04-28T06:04:10;100811.47;;;9.57;100.00
59103;BME280;43999;51.660;5.616;2023-04-28T06:06:40;100822.63;;;9.60;100.00
59103;BME280;43999;51.660;5.616;2023-04-28T06:09:08;100818.94;;;9.64;100.00
59103;BME280;43999;51.660;5.616;2023-04-28T06:11:35;100806.38;;;9.71;100.00
59103;BME280;43999;51.660;5.616;2023-04-28T06:14:03;100810.56;;;9.75;100.00
59103;BME280;43999;51.660;5.616;2023-04-28T06:16:30;100812.94;;;9.80;100.00
59103;BME280;43999;51.660;5.616;2023-04-28T06:18:58;100817.09;;;9.84;100.00
59103;BME280;43999;51.660;5.616;2023-04-28T06:21:29;100829.88;;;9.90;100.00
59103;BME280;43999;51.660;5.616;2023-04-28T06:23:58;100827.03;;;9.95;100.00
59103;BME280;43999;51.660;5.616;2023-04-28T06:26:25;100831.38;;;9.94;100.00
59103;BME280;43999;51.660;5.616;2023-04-28T06:28:53;100828.69;;;9.96;100.00
59103;BME280;43999;51.660;5.616;2023-04-28T06:31:22;100816.41;;;9.98;100.00
59103;BME280;43999;51.660;5.616;2023-04-28T06:33:52;100806.59;;;10.01;100.00
59103;BME280;43999;51.660;5.616;2023-04-28T06:36:21;100806.19;;;10.09;100.00
59103;BME280;43999;51.660;5.616;2023-04-28T06:38:50;100798.09;;;10.14;100.00
59103;BME280;43999;51.660;5.616;2023-04-28T06:41:20;100804.72;;;10.21;100.00
59103;BME280;43999;51.660;5.616;2023-04-28T06:43:52;100809.78;;;10.24;100.00
59103;BME280;43999;51.660;5.616;2023-04-28T06:46:29;100808.59;;;10.30;100.00
59103;BME280;43999;51.660;5.616;2023-04-28T06:48:58;100811.00;;;10.34;100.00
59103;BME280;43999;51.660;5.616;2023-04-28T06:51:39;100810.69;;;10.40;100.00
59103;BME280;43999;51.660;5.616;2023-04-28T06:54:07;100814.66;;;10.48;100.00
59103;BME280;43999;51.660;5.616;2023-04-28T06:56:35;100814.34;;;10.54;100.00
59103;BME280;43999;51.660;5.616;2023-04-28T06:59:04;100808.78;;;10.60;100.00
59103;BME280;43999;51.660;5.616;2023-04-28T07:01:36;100812.13;;;10.62;100.00
59103;BME280;43999;51.660;5.616;2023-04-28T07:04:03;100800.66;;;10.65;100.00
59103;BME280;43999;51.660;5.616;2023-04-28T07:06:31;100798.03;;;10.65;100.00
59103;BME280;43999;51.660;5.616;2023-04-28T07:08:59;100797.16;;;10.64;100.00
59103;BME280;43999;51.660;5.616;2023-04-28T07:11:26;100796.91;;;10.69;100.00
59103;BME280;43999;51.660;5.616;2023-04-28T07:13:55;100793.28;;;10.71;100.00
59103;BME280;43999;51.660;5.616;2023-04-28T07:16:23;100798.28;;;10.76;100.00
59103;BME280;43999;51.660;5.616;2023-04-28T07:18:52;100796.06;;;10.84;100.00
59103;BME280;43999;51.660;5.616;2023-04-28T07:21:21;100792.28;;;10.90;100.00
59103;BME280;43999;51.660;5.616;2023-04-28T07:23:48;100784.91;;;10.97;100.00
59103;BME280;43999;51.660;5.616;2023-04-28T07:26:15;100783.47;;;11.07;100.00
59103;BME280;43999;51.660;5.616;2023-04-28T07:28:43;100787.66;;;11.25;100.00
59103;BME280;43999;51.660;5.616;2023-04-28T07:31:11;100786.75;;;11.41;100.00
59103;BME280;43999;51.660;5.616;2023-04-28T07:33:39;100784.25;;;11.54;100.00
59103;BME280;43999;51.660;5.616;2023-04-28T07:36:07;100776.03;;;11.60;100.00
59103;BME280;43999;51.660;5.616;2023-04-28T07:38:39;100781.88;;;11.65;100.00
59103;BME280;43999;51.660;5.616;2023-04-28T07:41:09;100780.06;;;11.65;100.00
59103;BME280;43999;51.660;5.616;2023-04-28T07:43:39;100783.72;;;11.63;100.00
59103;BME280;43999;51.660;5.616;2023-04-28T07:46:12;100780.53;;;11.58;100.00
59103;BME280;43999;51.660;5.616;2023-04-28T07:48:42;100776.28;;;11.55;100.00
59103;BME280;43999;51.660;5.616;2023-04-28T07:51:10;100776.66;;;11.49;100.00
59103;BME280;43999;51.660;5.616;2023-04-28T07:53:39;100795.03;;;11.49;100.00
59103;BME280;43999;51.660;5.616;2023-04-28T07:56:10;100792.66;;;11.44;100.00
59103;BME280;43999;51.660;5.616;2023-04-28T07:58:43;100789.22;;;11.44;100.00
59103;BME280;43999;51.660;5.616;2023-04-28T08:01:12;100794.63;;;11.41;100.00
59103;BME280;43999;51.660;5.616;2023-04-28T08:03:50;100785.16;;;11.38;100.00
59103;BME280;43999;51.660;5.616;2023-04-28T08:06:18;100792.47;;;11.33;100.00
59103;BME280;43999;51.660;5.616;2023-04-28T08:08:46;100798.81;;;11.29;100.00
59103;BME280;43999;51.660;5.616;2023-04-28T08:11:21;100801.50;;;11.27;100.00
59103;BME280;43999;51.660;5.616;2023-04-28T08:13:52;100803.38;;;11.25;100.00
59103;BME280;43999;51.660;5.616;2023-04-28T08:16:20;100804.31;;;11.24;100.00
59103;BME280;43999;51.660;5.616;2023-04-28T08:18:49;100803.31;;;11.27;100.00
59103;BME280;43999;51.660;5.616;2023-04-28T08:21:18;100808.56;;;11.27;100.00
59103;BME280;43999;51.660;5.616;2023-04-28T08:23:45;100806.59;;;11.30;100.00
59103;BME280;43999;51.660;5.616;2023-04-28T08:26:15;100796.09;;;11.30;100.00
59103;BME280;43999;51.660;5.616;2023-04-28T08:28:43;100795.25;;;11.30;100.00
59103;BME280;43999;51.660;5.616;2023-04-28T08:31:13;100795.66;;;11.38;100.00
59103;BME280;43999;51.660;5.616;2023-04-28T08:33:49;100796.16;;;11.45;100.00
59103;BME280;43999;51.660;5.616;2023-04-28T08:36:17;100801.06;;;11.51;100.00
59103;BME280;43999;51.660;5.616;2023-04-28T08:38:47;100797.38;;;11.54;100.00
59103;BME280;43999;51.660;5.616;2023-04-28T08:41:15;100797.97;;;11.59;100.00
59103;BME280;43999;51.660;5.616;2023-04-28T08:43:45;100798.06;;;11.57;100.00
59103;BME280;43999;51.660;5.616;2023-04-28T08:46:13;100802.97;;;11.63;100.00
59103;BME280;43999;51.660;5.616;2023-04-28T08:48:44;100794.81;;;11.68;100.00
59103;BME280;43999;51.660;5.616;2023-04-28T08:51:44;100797.16;;;11.73;100.00
59103;BME280;43999;51.660;5.616;2023-04-28T08:54:25;100799.41;;;11.79;100.00
59103;BME280;43999;51.660;5.616;2023-04-28T08:57:02;100793.31;;;11.78;100.00
59103;BME280;43999;51.660;5.616;2023-04-28T08:59:39;100802.69;;;11.82;100.00
59103;BME280;43999;51.660;5.616;2023-04-28T09:02:09;100800.72;;;11.86;100.00
59103;BME280;43999;51.660;5.616;2023-04-28T09:04:37;100799.88;;;11.86;100.00
59103;BME280;43999;51.660;5.616;2023-04-28T09:07:10;100786.75;;;11.86;100.00
59103;BME280;43999;51.660;5.616;2023-04-28T09:09:42;100795.28;;;11.89;100.00
59103;BME280;43999;51.660;5.616;2023-04-28T09:12:14;100800.28;;;11.94;100.00
59103;BME280;43999;51.660;5.616;2023-04-28T09:14:44;100800.19;;;11.95;100.00
59103;BME280;43999;51.660;5.616;2023-04-28T09:17:24;100795.88;;;11.94;100.00
59103;BME280;43999;51.660;5.616;2023-04-28T09:19:56;100806.19;;;11.97;100.00
59103;BME280;43999;51.660;5.616;2023-04-28T09:22:39;100797.41;;;11.98;100.00
59103;BME280;43999;51.660;5.616;2023-04-28T09:25:10;100794.94;;;11.95;100.00
59103;BME280;43999;51.660;5.616;2023-04-28T09:27:43;100796.75;;;11.95;100.00
59103;BME280;43999;51.660;5.616;2023-04-28T09:30:15;100796.84;;;11.93;100.00
59103;BME280;43999;51.660;5.616;2023-04-28T09:33:03;100788.09;;;11.93;100.00
59103;BME280;43999;51.660;5.616;2023-04-28T09:35:39;100793.66;;;12.02;100.00
59103;BME280;43999;51.660;5.616;2023-04-28T09:38:09;100798.25;;;12.13;100.00
59103;BME280;43999;51.660;5.616;2023-04-28T09:40:59;100794.00;;;12.25;100.00
59103;BME280;43999;51.660;5.616;2023-04-28T09:43:32;100800.59;;;12.32;100.00
59103;BME280;43999;51.660;5.616;2023-04-28T09:46:04;100792.78;;;12.31;100.00
59103;BME280;43999;51.660;5.616;2023-04-28T09:49:05;100787.44;;;12.32;100.00
59103;BME280;43999;51.660;5.616;2023-04-28T09:51:38;100798.59;;;12.36;100.00
59103;BME280;43999;51.660;5.616;2023-04-28T09:54:07;100793.34;;;12.36;100.00
59103;BME280;43999;51.660;5.616;2023-04-28T09:56:35;100791.50;;;12.38;100.00
59103;BME280;43999;51.660;5.616;2023-04-28T09:59:08;100797.28;;;12.43;100.00
59103;BME280;43999;51.660;5.616;2023-04-28T10:01:48;100792.88;;;12.44;100.00
59103;BME280;43999;51.660;5.616;2023-04-28T10:04:17;100800.66;;;12.45;100.00
59103;BME280;43999;51.660;5.616;2023-04-28T10:06:47;100799.72;;;12.46;100.00
59103;BME280;43999;51.660;5.616;2023-04-28T10:09:16;100794.91;;;12.53;100.00
59103;BME280;43999;51.660;5.616;2023-04-28T10:11:59;100801.59;;;12.59;100.00
59103;BME280;43999;51.660;5.616;2023-04-28T10:14:30;100793.69;;;12.59;100.00
59103;BME280;43999;51.660;5.616;2023-04-28T10:16:59;100800.47;;;12.63;100.00
59103;BME280;43999;51.660;5.616;2023-04-28T10:19:31;100796.25;;;12.60;100.00
59103;BME280;43999;51.660;5.616;2023-04-28T10:27:42;100798.09;;;12.72;100.00
59103;BME280;43999;51.660;5.616;2023-04-28T10:30:23;100800.31;;;12.79;100.00
59103;BME280;43999;51.660;5.616;2023-04-28T10:35:45;100792.88;;;12.85;100.00
59103;BME280;43999;51.660;5.616;2023-04-28T10:38:17;100795.41;;;12.87;100.00
59103;BME280;43999;51.660;5.616;2023-04-28T10:40:52;100797.94;;;12.88;100.00
59103;BME280;43999;51.660;5.616;2023-04-28T10:46:15;100799.44;;;12.93;100.00
59103;BME280;43999;51.660;5.616;2023-04-28T10:49:05;100787.22;;;12.91;100.00
59103;BME280;43999;51.660;5.616;2023-04-28T10:51:38;100794.72;;;12.98;100.00
59103;BME280;43999;51.660;5.616;2023-04-28T10:54:17;100787.09;;;13.07;100.00
59103;BME280;43999;51.660;5.616;2023-04-28T10:57:17;100779.34;;;13.19;100.00
59103;BME280;43999;51.660;5.616;2023-04-28T10:59:50;100792.00;;;13.26;100.00
59103;BME280;43999;51.660;5.616;2023-04-28T11:02:45;100785.66;;;13.29;100.00
59103;BME280;43999;51.660;5.616;2023-04-28T11:05:17;100796.09;;;13.31;100.00
59103;BME280;43999;51.660;5.616;2023-04-28T11:14:33;100792.50;;;13.32;100.00
59103;BME280;43999;51.660;5.616;2023-04-28T11:17:12;100791.41;;;13.36;100.00
59103;BME280;43999;51.660;5.616;2023-04-28T11:19:47;100787.41;;;13.43;100.00
59103;BME280;43999;51.660;5.616;2023-04-28T11:22:21;100784.81;;;13.56;100.00
59103;BME280;43999;51.660;5.616;2023-04-28T11:25:07;100782.59;;;13.62;100.00
59103;BME280;43999;51.660;5.616;2023-04-28T11:27:38;100785.84;;;13.66;100.00
59103;BME280;43999;51.660;5.616;2023-04-28T11:30:21;100772.59;;;13.68;100.00
59103;BME280;43999;51.660;5.616;2023-04-28T11:32:56;100777.13;;;13.66;100.00
59103;BME280;43999;51.660;5.616;2023-04-28T11:35:42;100787.66;;;13.66;100.00
59103;BME280;43999;51.660;5.616;2023-04-28T11:38:14;100779.88;;;13.64;100.00
59103;BME280;43999;51.660;5.616;2023-04-28T11:40:56;100779.75;;;13.66;100.00
59103;BME280;43999;51.660;5.616;2023-04-28T11:43:30;100784.81;;;13.69;100.00
59103;BME280;43999;51.660;5.616;2023-04-28T11:46:24;100785.66;;;13.69;100.00
59103;BME280;43999;51.660;5.616;2023-04-28T11:49:04;100780.81;;;13.63;100.00
59103;BME280;43999;51.660;5.616;2023-04-28T11:51:37;100791.53;;;13.60;100.00
59103;BME280;43999;51.660;5.616;2023-04-28T11:54:13;100788.59;;;13.52;100.00
59103;BME280;43999;51.660;5.616;2023-04-28T11:56:48;100788.78;;;13.49;100.00
59103;BME280;43999;51.660;5.616;2023-04-28T11:59:22;100791.72;;;13.44;100.00
59103;BME280;43999;51.660;5.616;2023-04-28T12:02:04;100798.13;;;13.40;100.00
59103;BME280;43999;51.660;5.616;2023-04-28T12:04:46;100793.84;;;13.39;100.00
59103;BME280;43999;51.660;5.616;2023-04-28T12:07:19;100790.34;;;13.38;100.00
59103;BME280;43999;51.660;5.616;2023-04-28T12:10:10;100788.78;;;13.36;100.00
59103;BME280;43999;51.660;5.616;2023-04-28T12:12:43;100796.09;;;13.31;100.00
59103;BME280;43999;51.660;5.616;2023-04-28T12:15:20;100795.16;;;13.32;100.00
59103;BME280;43999;51.660;5.616;2023-04-28T12:18:07;100796.69;;;13.36;100.00
59103;BME280;43999;51.660;5.616;2023-04-28T12:20:52;100798.53;;;13.34;100.00
59103;BME280;43999;51.660;5.616;2023-04-28T12:23:34;100802.03;;;13.34;100.00
59103;BME280;43999;51.660;5.616;2023-04-28T12:26:04;100798.91;;;13.27;100.00
59103;BME280;43999;51.660;5.616;2023-04-28T12:28:38;100806.19;;;13.24;100.00
59103;BME280;43999;51.660;5.616;2023-04-28T12:31:08;100806.28;;;13.22;100.00
59103;BME280;43999;51.660;5.616;2023-04-28T12:33:43;100813.44;;;13.20;100.00
59103;BME280;43999;51.660;5.616;2023-04-28T12:36:12;100806.59;;;13.18;100.00
59103;BME280;43999;51.660;5.616;2023-04-28T12:38:47;100812.13;;;13.13;100.00
59103;BME280;43999;51.660;5.616;2023-04-28T12:41:15;100805.94;;;13.14;100.00
59103;BME280;43999;51.660;5.616;2023-04-28T12:43:44;100813.84;;;13.14;100.00
59103;BME280;43999;51.660;5.616;2023-04-28T12:46:18;100819.19;;;13.13;100.00
59103;BME280;43999;51.660;5.616;2023-04-28T12:48:45;100817.50;;;13.12;100.00
59103;BME280;43999;51.660;5.616;2023-04-28T12:51:13;100809.91;;;13.07;100.00
59103;BME280;43999;51.660;5.616;2023-04-28T12:53:41;100823.16;;;13.05;100.00
59103;BME280;43999;51.660;5.616;2023-04-28T12:56:12;100827.06;;;13.00;100.00
59103;BME280;43999;51.660;5.616;2023-04-28T12:58:44;100815.31;;;12.91;100.00
59103;BME280;43999;51.660;5.616;2023-04-28T13:01:13;100821.59;;;12.88;100.00
59103;BME280;43999;51.660;5.616;2023-04-28T13:03:42;100828.22;;;12.81;100.00
59103;BME280;43999;51.660;5.616;2023-04-28T13:06:10;100833.88;;;12.75;100.00
59103;BME280;43999;51.660;5.616;2023-04-28T13:08:42;100827.19;;;12.69;100.00
59103;BME280;43999;51.660;5.616;2023-04-28T13:11:12;100837.91;;;12.66;100.00
59103;BME280;43999;51.660;5.616;2023-04-28T13:13:49;100833.03;;;12.60;100.00
59103;BME280;43999;51.660;5.616;2023-04-28T13:16:21;100840.19;;;12.58;100.00
59103;BME280;43999;51.660;5.616;2023-04-28T13:18:51;100832.50;;;12.55;100.00
59103;BME280;43999;51.660;5.616;2023-04-28T13:21:19;100838.13;;;12.49;100.00
59103;BME280;43999;51.660;5.616;2023-04-28T13:23:49;100842.06;;;12.42;100.00